Main page
METAR-TAF:

METAR-TAF

Airports :

La Vanguardia Airport

Villavicencio, Colombia

latitude: 04-10N, longitude: 073-37W, elevation: 423 m

Current weather observation

The report was made 8 hours and 56 minutes ago, at 22:00 UTC
Wind 5 kt from the South/Southwest
Temperature 27°C
Humidity 74%
Pressure 1011 hPa
Visibility 10 km or more
Scattered clouds at a height of 2000 ft
Broken clouds at a height of 9000 ft

METAR: SKVV 092200Z 20005KT 9999 SCT020 BKN090 27/22 A2984

Time: 01:56 (06:56 UTC)


TAF: missing

Weather observations and forecasts of more than 4000 airports (METAR and TAF reports).

The available stations are represented by yellow and red dots on the map.

Hover mouse over dot to see the name of the station.

Then click to see weather observations and forecasts.

To change the map : click on the green buttons with a black cross to zoom in, on the green button with a dash to zoom out, or on the green arrows for adjacent maps.


METAR-TAF: